Brownfield, TX (79316)

5:24 AM CDT on October 24, 2014 (GMT -0500)
WT_Meso Brownfield 2S | Change Station
CLOSE
Current Station
Personal Weather Station
Location: Brownfield, TX
Elevation: 3313 ft
Nearby Weather Stations

Elev 3313 ft 33.15 °N, 102.27 °W | Updated 29 minutes ago

Clear
Clear
57 °F
Feels Like 57 °F
N
10
Wind Variable Wind from WSW
Gusts 12.0 mph

Today
High -- | Low -- °F
--% Chance of Precip.
Yesterday
High -- | Low -- °F
Precip. -- in
8:00 AM 7:05 PM
New Moon, 0% visible
Pressure 30.16 in
Visibility 10.0 miles
Clouds Clear
Dew Point 54 °F
Humidity 95%
Rainfall -999.00 in
Snow Depth Not available.
UV 0 out of 12
Pollen 4.90 out of 12
Air Quality Not available.
Flu Activity Sporadic
METAR KGNC 241015Z AUTO 25007KT 10SM CLR 14/14 A3016 RMK AO2 T01400135

More Conditions Fewer Conditions

Pressure 30.16 in
Visibility 10.0 miles
Clouds Clear
Dew Point 54 °F
Humidity 95%
Rainfall -999.00 in
Snow Depth Not available.
UV 0 out of 12
Pollen 4.90 out of 12
Air Quality Not available.
Flu Activity Sporadic
METAR KGNC 241015Z AUTO 25007KT 10SM CLR 14/14 A3016 RMK AO2 T01400135

More Conditions Fewer Conditions

10-Day Weather Forecast

Almanac

Astronomy

Oct. 24, 2014 Rise Set
Actual Time 8:00 AM CDT 7:05 PM CDT
Civil Twilight 7:35 AM CDT 7:30 PM CDT
Nautical Twilight 7:06 AM CDT 7:59 PM CDT
Astronomical Twilight 6:37 AM CDT 8:28 PM CDT
Moon 8:40 AM CDT 7:49 PM CDT
Length of Visible Light 11h 55m
Length of Day
11h 04m
Tomorrow will be 1m 53s shorter.
New Moon, 0% of the Moon is Illuminated
Today
New Moon
Oct 30
First Quarter
Nov 6
Full
Nov 14
Last Quarter
Nov 22
New

Today's Extremes

State Highs State Lows

Community

WunderPhotos

Upload Photos

1,764,513 photos uploaded!

WunderBlogs® & News

Nearby

Snow Depth

Station Depth Elevation
No new snow has been reported.

Earthquake Activity

City Distance Mag. Time & Date
No recent earthquake activity has been reported nearby.
Minimum magnitude displayed is 2.5.

Coastal Water Temperatures

Place Temperature
No Stations Reporting

Nearby Weather Stations